createdAt,value
2024-03-11T00:06:30.992Z,6.38
2024-03-11T00:16:52.065Z,5.78
2024-03-11T00:27:12.868Z,5.07
2024-03-11T00:37:33.696Z,5.65
2024-03-11T00:47:54.647Z,3.30
2024-03-11T00:58:15.319Z,6.18
2024-03-11T01:08:36.511Z,5.03
2024-03-11T01:18:57.887Z,5.85
2024-03-11T01:29:26.319Z,2.95
2024-03-11T01:39:47.438Z,12.45
2024-03-11T01:50:09.488Z,6.90
2024-03-11T02:00:30.988Z,8.40
2024-03-11T02:10:53.037Z,7.47
2024-03-11T02:21:13.900Z,4.05
2024-03-11T02:31:34.765Z,5.50
2024-03-11T02:41:55.765Z,5.93
2024-03-11T02:52:16.790Z,3.75
2024-03-11T03:02:41.400Z,5.40
2024-03-11T03:13:02.263Z,5.70
2024-03-11T03:23:23.124Z,5.93
2024-03-11T03:33:44.118Z,6.88
2024-03-11T03:44:05.583Z,7.40
2024-03-11T03:54:28.466Z,7.85
2024-03-11T04:04:49.652Z,9.32
2024-03-11T04:15:13.732Z,8.63
2024-03-11T04:25:38.515Z,11.02
2024-03-11T04:35:59.865Z,10.90
2024-03-11T04:46:20.912Z,9.85
2024-03-11T04:56:41.871Z,9.35
2024-03-11T05:07:03.516Z,9.93
2024-03-11T05:17:24.449Z,11.80
2024-03-11T05:27:49.056Z,11.15
2024-03-11T05:38:12.121Z,13.35
2024-03-11T05:48:35.147Z,11.65
2024-03-11T05:58:56.165Z,10.63
2024-03-11T06:09:17.573Z,9.65
2024-03-11T06:19:41.103Z,8.93
2024-03-11T06:30:02.917Z,9.95
2024-03-11T06:40:23.975Z,9.45
2024-03-11T06:50:45.001Z,8.15
2024-03-11T07:01:08.591Z,9.25
2024-03-11T07:11:29.594Z,5.88
2024-03-11T07:21:50.606Z,5.38
2024-03-11T07:32:12.683Z,3.65
2024-03-11T07:42:34.101Z,5.13
2024-03-11T07:52:55.741Z,3.58
2024-03-11T08:03:16.647Z,3.90
2024-03-11T08:13:37.381Z,3.00
2024-03-11T08:23:58.680Z,2.40
2024-03-11T08:34:19.859Z,3.88
2024-03-11T08:44:41.015Z,4.82
2024-03-11T08:55:06.585Z,2.80
2024-03-11T09:05:27.697Z,5.57
2024-03-11T09:15:51.050Z,6.15
2024-03-11T09:26:12.073Z,5.35
2024-03-11T09:36:33.192Z,3.75
2024-03-11T09:46:56.647Z,4.40
2024-03-11T09:57:20.275Z,4.03
2024-03-11T10:07:44.877Z,2.65
2024-03-11T10:18:16.574Z,2.17
2024-03-11T10:28:37.229Z,1.42
2024-03-11T10:39:18.686Z,6.00
2024-03-11T10:49:41.472Z,2.35
2024-03-11T11:00:12.113Z,1.95
2024-03-11T11:10:38.063Z,1.60
2024-03-11T11:21:00.916Z,2.17
2024-03-11T11:31:28.742Z,0.98
2024-03-11T11:41:54.698Z,0.75
2024-03-11T11:52:17.125Z,0.82
2024-03-11T12:02:41.061Z,1.38
2024-03-11T12:13:01.924Z,1.67
2024-03-11T12:23:24.052Z,0.68
2024-03-11T12:33:47.414Z,0.75
2024-03-11T12:44:19.528Z,0.98
2024-03-11T12:54:40.558Z,0.65
2024-03-11T13:05:12.604Z,0.80
2024-03-11T13:15:36.262Z,0.43
2024-03-11T13:25:58.119Z,0.75
2024-03-11T13:36:20.153Z,1.10
2024-03-11T13:46:44.752Z,1.95
2024-03-11T13:57:08.450Z,0.50
2024-03-11T14:07:29.363Z,1.58
2024-03-11T14:17:50.300Z,1.20
2024-03-11T14:28:13.323Z,2.45
2024-03-11T14:38:47.555Z,0.43
2024-03-11T14:49:12.105Z,0.60
2024-03-11T14:59:36.415Z,0.70
2024-03-11T15:10:00.603Z,0.82
2024-03-11T15:20:21.806Z,0.50
2024-03-11T15:30:42.962Z,2.25
2024-03-11T15:41:03.779Z,1.70
2024-03-11T15:51:24.769Z,1.42
2024-03-11T16:01:48.981Z,1.65
2024-03-11T16:12:10.542Z,0.93
2024-03-11T16:22:31.503Z,2.15
2024-03-11T16:32:57.326Z,4.25
2024-03-11T16:43:18.142Z,2.25
2024-03-11T16:53:39.455Z,2.00
2024-03-11T17:04:01.998Z,6.85
2024-03-11T17:14:27.107Z,2.40
2024-03-11T17:24:48.259Z,2.97
2024-03-11T17:35:12.244Z,3.00
2024-03-11T17:45:34.029Z,2.45
2024-03-11T17:56:07.425Z,2.00
2024-03-11T18:06:28.685Z,3.92
2024-03-11T18:16:49.685Z,8.95
2024-03-11T18:27:12.401Z,5.85
2024-03-11T18:37:37.964Z,4.00
2024-03-11T18:48:00.391Z,6.82
2024-03-11T18:58:22.067Z,5.65
2024-03-11T19:08:47.410Z,2.47
2024-03-11T19:19:08.695Z,4.53
2024-03-11T19:29:32.483Z,2.50
2024-03-11T19:40:17.863Z,1.75
2024-03-11T19:51:08.104Z,2.35
2024-03-11T20:01:54.798Z,3.08
2024-03-11T20:12:34.855Z,3.78
2024-03-11T20:23:20.178Z,2.90
2024-03-11T20:33:43.980Z,4.45
2024-03-11T20:44:06.166Z,4.28
2024-03-11T20:54:27.389Z,5.07
2024-03-11T21:04:48.365Z,7.00
2024-03-11T21:15:14.310Z,6.45
2024-03-11T21:25:51.594Z,5.22
2024-03-11T21:36:13.781Z,8.15
2024-03-11T21:46:35.135Z,8.57
2024-03-11T21:56:56.069Z,8.82
2024-03-11T22:07:17.821Z,10.98
2024-03-11T22:17:39.718Z,8.32
2024-03-11T22:28:01.417Z,12.48
2024-03-11T22:38:22.572Z,7.93
2024-03-11T22:48:44.474Z,10.30
2024-03-11T22:59:07.377Z,8.95
2024-03-11T23:09:29.934Z,8.80
2024-03-11T23:19:50.623Z,9.45
2024-03-11T23:30:14.594Z,9.00
2024-03-11T23:40:37.771Z,6.25
2024-03-11T23:50:58.905Z,6.07
